sensor_id;sensor_type;location;lat;lon;timestamp;P1;durP1;ratioP1;P2;durP2;ratioP2
20080;SDS011;10200;49.232;9.222;2022-08-27T00:01:31;6.63;;;5.15;;
20080;SDS011;10200;49.232;9.222;2022-08-27T00:03:57;9.85;;;6.00;;
20080;SDS011;10200;49.232;9.222;2022-08-27T00:06:23;8.40;;;6.28;;
20080;SDS011;10200;49.232;9.222;2022-08-27T00:08:51;8.98;;;5.65;;
20080;SDS011;10200;49.232;9.222;2022-08-27T00:11:17;8.80;;;5.70;;
20080;SDS011;10200;49.232;9.222;2022-08-27T00:13:44;10.80;;;5.70;;
20080;SDS011;10200;49.232;9.222;2022-08-27T00:16:11;8.00;;;6.10;;
20080;SDS011;10200;49.232;9.222;2022-08-27T00:18:38;7.25;;;5.50;;
20080;SDS011;10200;49.232;9.222;2022-08-27T00:21:04;7.32;;;5.80;;
20080;SDS011;10200;49.232;9.222;2022-08-27T00:23:30;9.18;;;6.47;;
20080;SDS011;10200;49.232;9.222;2022-08-27T00:25:56;8.85;;;5.45;;
20080;SDS011;10200;49.232;9.222;2022-08-27T00:28:23;8.38;;;5.95;;
20080;SDS011;10200;49.232;9.222;2022-08-27T00:30:51;11.32;;;6.93;;
20080;SDS011;10200;49.232;9.222;2022-08-27T00:33:16;8.68;;;5.93;;
20080;SDS011;10200;49.232;9.222;2022-08-27T00:35:42;9.30;;;6.05;;
20080;SDS011;10200;49.232;9.222;2022-08-27T00:38:08;8.98;;;6.25;;
20080;SDS011;10200;49.232;9.222;2022-08-27T00:40:33;11.00;;;6.32;;
20080;SDS011;10200;49.232;9.222;2022-08-27T00:42:59;9.93;;;6.78;;
20080;SDS011;10200;49.232;9.222;2022-08-27T00:45:28;8.85;;;5.72;;
20080;SDS011;10200;49.232;9.222;2022-08-27T00:47:57;9.50;;;4.70;;
20080;SDS011;10200;49.232;9.222;2022-08-27T00:50:30;8.80;;;6.20;;
20080;SDS011;10200;49.232;9.222;2022-08-27T00:53:05;8.00;;;6.43;;
20080;SDS011;10200;49.232;9.222;2022-08-27T00:55:38;12.27;;;6.70;;
20080;SDS011;10200;49.232;9.222;2022-08-27T00:58:11;11.63;;;6.50;;
20080;SDS011;10200;49.232;9.222;2022-08-27T01:00:41;10.88;;;6.15;;
20080;SDS011;10200;49.232;9.222;2022-08-27T01:03:08;9.73;;;6.30;;
20080;SDS011;10200;49.232;9.222;2022-08-27T01:05:34;13.45;;;7.90;;
20080;SDS011;10200;49.232;9.222;2022-08-27T01:08:05;10.48;;;6.75;;
20080;SDS011;10200;49.232;9.222;2022-08-27T01:10:34;8.48;;;6.80;;
20080;SDS011;10200;49.232;9.222;2022-08-27T01:13:01;12.20;;;6.57;;
20080;SDS011;10200;49.232;9.222;2022-08-27T01:15:27;8.55;;;6.63;;
20080;SDS011;10200;49.232;9.222;2022-08-27T01:17:54;8.73;;;6.22;;
20080;SDS011;10200;49.232;9.222;2022-08-27T01:20:26;10.45;;;7.13;;
20080;SDS011;10200;49.232;9.222;2022-08-27T01:25:55;10.70;;;6.88;;
20080;SDS011;10200;49.232;9.222;2022-08-27T01:28:22;10.13;;;6.60;;
20080;SDS011;10200;49.232;9.222;2022-08-27T01:30:48;10.93;;;7.63;;
20080;SDS011;10200;49.232;9.222;2022-08-27T01:33:15;10.55;;;7.70;;
20080;SDS011;10200;49.232;9.222;2022-08-27T01:35:44;10.13;;;8.00;;
20080;SDS011;10200;49.232;9.222;2022-08-27T01:38:11;16.20;;;7.80;;
20080;SDS011;10200;49.232;9.222;2022-08-27T01:40:39;12.10;;;7.40;;
20080;SDS011;10200;49.232;9.222;2022-08-27T01:43:05;14.98;;;8.57;;
20080;SDS011;10200;49.232;9.222;2022-08-27T01:45:33;12.57;;;8.23;;
20080;SDS011;10200;49.232;9.222;2022-08-27T01:48:01;10.05;;;7.10;;
20080;SDS011;10200;49.232;9.222;2022-08-27T01:50:29;10.57;;;7.63;;
20080;SDS011;10200;49.232;9.222;2022-08-27T01:53:00;9.95;;;7.43;;
20080;SDS011;10200;49.232;9.222;2022-08-27T01:55:28;15.35;;;9.18;;
20080;SDS011;10200;49.232;9.222;2022-08-27T01:57:54;9.68;;;7.95;;
20080;SDS011;10200;49.232;9.222;2022-08-27T02:00:21;9.25;;;7.13;;
20080;SDS011;10200;49.232;9.222;2022-08-27T02:02:49;15.85;;;9.30;;
20080;SDS011;10200;49.232;9.222;2022-08-27T02:05:15;11.35;;;9.15;;
20080;SDS011;10200;49.232;9.222;2022-08-27T02:07:42;11.98;;;8.60;;
20080;SDS011;10200;49.232;9.222;2022-08-27T02:10:09;21.63;;;10.68;;
20080;SDS011;10200;49.232;9.222;2022-08-27T02:12:37;14.57;;;10.07;;
20080;SDS011;10200;49.232;9.222;2022-08-27T02:15:03;15.18;;;9.50;;
20080;SDS011;10200;49.232;9.222;2022-08-27T02:17:30;14.05;;;10.10;;
20080;SDS011;10200;49.232;9.222;2022-08-27T02:19:55;16.33;;;10.40;;
20080;SDS011;10200;49.232;9.222;2022-08-27T02:22:21;13.35;;;9.93;;
20080;SDS011;10200;49.232;9.222;2022-08-27T02:24:48;15.50;;;10.10;;
20080;SDS011;10200;49.232;9.222;2022-08-27T02:27:14;15.18;;;11.73;;
20080;SDS011;10200;49.232;9.222;2022-08-27T02:29:40;14.98;;;11.48;;
20080;SDS011;10200;49.232;9.222;2022-08-27T02:32:06;16.15;;;12.60;;
20080;SDS011;10200;49.232;9.222;2022-08-27T02:34:31;21.20;;;13.52;;
20080;SDS011;10200;49.232;9.222;2022-08-27T02:36:57;23.83;;;15.43;;
20080;SDS011;10200;49.232;9.222;2022-08-27T02:39:23;23.25;;;14.93;;
20080;SDS011;10200;49.232;9.222;2022-08-27T02:41:49;20.17;;;15.50;;
20080;SDS011;10200;49.232;9.222;2022-08-27T02:44:14;20.20;;;15.20;;
20080;SDS011;10200;49.232;9.222;2022-08-27T02:46:40;24.63;;;17.00;;
20080;SDS011;10200;49.232;9.222;2022-08-27T02:49:06;20.77;;;16.45;;
20080;SDS011;10200;49.232;9.222;2022-08-27T02:51:33;25.35;;;18.95;;
20080;SDS011;10200;49.232;9.222;2022-08-27T02:53:59;23.88;;;17.13;;
20080;SDS011;10200;49.232;9.222;2022-08-27T02:56:26;26.52;;;19.05;;
20080;SDS011;10200;49.232;9.222;2022-08-27T02:58:52;23.98;;;19.27;;
20080;SDS011;10200;49.232;9.222;2022-08-27T03:01:18;23.35;;;17.88;;
20080;SDS011;10200;49.232;9.222;2022-08-27T03:03:44;24.60;;;18.92;;
20080;SDS011;10200;49.232;9.222;2022-08-27T03:06:10;23.58;;;18.70;;
20080;SDS011;10200;49.232;9.222;2022-08-27T03:08:35;24.73;;;19.48;;
20080;SDS011;10200;49.232;9.222;2022-08-27T03:11:01;24.83;;;19.25;;
20080;SDS011;10200;49.232;9.222;2022-08-27T03:13:27;26.92;;;19.77;;
20080;SDS011;10200;49.232;9.222;2022-08-27T03:15:52;27.00;;;19.92;;
20080;SDS011;10200;49.232;9.222;2022-08-27T03:18:18;27.55;;;19.20;;
20080;SDS011;10200;49.232;9.222;2022-08-27T03:20:46;32.40;;;19.85;;
20080;SDS011;10200;49.232;9.222;2022-08-27T03:23:14;28.27;;;21.08;;
20080;SDS011;10200;49.232;9.222;2022-08-27T03:25:42;27.50;;;21.10;;
20080;SDS011;10200;49.232;9.222;2022-08-27T03:28:14;30.75;;;21.80;;
20080;SDS011;10200;49.232;9.222;2022-08-27T03:30:41;33.72;;;22.50;;
20080;SDS011;10200;49.232;9.222;2022-08-27T03:33:10;28.23;;;21.63;;
20080;SDS011;10200;49.232;9.222;2022-08-27T03:35:36;29.33;;;21.52;;
20080;SDS011;10200;49.232;9.222;2022-08-27T03:38:02;27.40;;;21.95;;
20080;SDS011;10200;49.232;9.222;2022-08-27T03:40:27;28.55;;;22.52;;
20080;SDS011;10200;49.232;9.222;2022-08-27T03:42:53;29.63;;;22.70;;
20080;SDS011;10200;49.232;9.222;2022-08-27T03:45:19;26.77;;;20.52;;
20080;SDS011;10200;49.232;9.222;2022-08-27T03:47:45;28.75;;;20.67;;
20080;SDS011;10200;49.232;9.222;2022-08-27T03:50:10;27.48;;;21.67;;
20080;SDS011;10200;49.232;9.222;2022-08-27T03:52:36;30.45;;;22.75;;
20080;SDS011;10200;49.232;9.222;2022-08-27T03:55:03;29.80;;;22.63;;
20080;SDS011;10200;49.232;9.222;2022-08-27T03:57:30;26.38;;;20.48;;
20080;SDS011;10200;49.232;9.222;2022-08-27T03:59:56;31.27;;;22.85;;
20080;SDS011;10200;49.232;9.222;2022-08-27T04:02:22;29.08;;;21.73;;
20080;SDS011;10200;49.232;9.222;2022-08-27T04:04:47;25.77;;;20.45;;
20080;SDS011;10200;49.232;9.222;2022-08-27T04:07:13;28.73;;;23.05;;
20080;SDS011;10200;49.232;9.222;2022-08-27T04:09:38;33.17;;;22.45;;
20080;SDS011;10200;49.232;9.222;2022-08-27T04:12:04;28.52;;;23.13;;
20080;SDS011;10200;49.232;9.222;2022-08-27T04:14:30;29.10;;;22.05;;
20080;SDS011;10200;49.232;9.222;2022-08-27T04:16:55;27.23;;;20.77;;
20080;SDS011;10200;49.232;9.222;2022-08-27T04:19:22;32.28;;;22.02;;
20080;SDS011;10200;49.232;9.222;2022-08-27T04:21:48;26.85;;;21.75;;
20080;SDS011;10200;49.232;9.222;2022-08-27T04:24:14;27.25;;;20.92;;
20080;SDS011;10200;49.232;9.222;2022-08-27T04:26:40;25.25;;;20.23;;
20080;SDS011;10200;49.232;9.222;2022-08-27T04:29:06;31.20;;;20.90;;
20080;SDS011;10200;49.232;9.222;2022-08-27T04:31:32;28.33;;;22.70;;
20080;SDS011;10200;49.232;9.222;2022-08-27T04:33:59;25.67;;;20.95;;
20080;SDS011;10200;49.232;9.222;2022-08-27T04:36:25;26.63;;;21.13;;
20080;SDS011;10200;49.232;9.222;2022-08-27T04:38:50;31.13;;;21.40;;
20080;SDS011;10200;49.232;9.222;2022-08-27T04:41:16;29.70;;;21.05;;
20080;SDS011;10200;49.232;9.222;2022-08-27T04:43:46;30.33;;;22.05;;
20080;SDS011;10200;49.232;9.222;2022-08-27T04:46:13;25.42;;;18.95;;
20080;SDS011;10200;49.232;9.222;2022-08-27T04:48:42;26.58;;;20.10;;
20080;SDS011;10200;49.232;9.222;2022-08-27T04:51:08;27.25;;;20.42;;
20080;SDS011;10200;49.232;9.222;2022-08-27T04:53:34;27.38;;;20.38;;
20080;SDS011;10200;49.232;9.222;2022-08-27T04:55:59;27.75;;;22.25;;
20080;SDS011;10200;49.232;9.222;2022-08-27T04:58:25;26.90;;;20.40;;
20080;SDS011;10200;49.232;9.222;2022-08-27T05:00:52;28.35;;;20.55;;
20080;SDS011;10200;49.232;9.222;2022-08-27T05:03:20;25.20;;;19.75;;
20080;SDS011;10200;49.232;9.222;2022-08-27T05:05:48;26.35;;;20.20;;
20080;SDS011;10200;49.232;9.222;2022-08-27T05:08:14;25.83;;;19.92;;
20080;SDS011;10200;49.232;9.222;2022-08-27T05:10:42;26.05;;;19.00;;
20080;SDS011;10200;49.232;9.222;2022-08-27T05:13:08;25.00;;;20.25;;
20080;SDS011;10200;49.232;9.222;2022-08-27T05:15:36;26.20;;;21.00;;
20080;SDS011;10200;49.232;9.222;2022-08-27T05:18:03;23.92;;;19.35;;
20080;SDS011;10200;49.232;9.222;2022-08-27T05:20:29;25.65;;;19.70;;
20080;SDS011;10200;49.232;9.222;2022-08-27T05:22:56;25.52;;;19.27;;
20080;SDS011;10200;49.232;9.222;2022-08-27T05:25:22;23.35;;;19.27;;
20080;SDS011;10200;49.232;9.222;2022-08-27T05:27:48;24.63;;;20.73;;
20080;SDS011;10200;49.232;9.222;2022-08-27T05:30:14;23.05;;;18.27;;
20080;SDS011;10200;49.232;9.222;2022-08-27T05:32:40;24.20;;;19.17;;
20080;SDS011;10200;49.232;9.222;2022-08-27T05:35:06;20.98;;;17.75;;
20080;SDS011;10200;49.232;9.222;2022-08-27T05:37:33;21.10;;;16.85;;
20080;SDS011;10200;49.232;9.222;2022-08-27T05:39:59;27.45;;;19.27;;
20080;SDS011;10200;49.232;9.222;2022-08-27T05:42:25;25.23;;;19.27;;
20080;SDS011;10200;49.232;9.222;2022-08-27T05:44:53;24.83;;;19.38;;
20080;SDS011;10200;49.232;9.222;2022-08-27T05:47:20;30.83;;;19.20;;
20080;SDS011;10200;49.232;9.222;2022-08-27T05:49:46;23.13;;;19.10;;
20080;SDS011;10200;49.232;9.222;2022-08-27T05:52:15;23.80;;;19.08;;
20080;SDS011;10200;49.232;9.222;2022-08-27T05:54:40;24.90;;;18.77;;
20080;SDS011;10200;49.232;9.222;2022-08-27T05:57:06;20.65;;;17.98;;
20080;SDS011;10200;49.232;9.222;2022-08-27T05:59:32;20.85;;;17.58;;
20080;SDS011;10200;49.232;9.222;2022-08-27T06:02:16;20.67;;;18.48;;
20080;SDS011;10200;49.232;9.222;2022-08-27T06:04:44;27.08;;;18.60;;
20080;SDS011;10200;49.232;9.222;2022-08-27T06:07:11;20.77;;;17.00;;
20080;SDS011;10200;49.232;9.222;2022-08-27T06:09:36;22.73;;;17.92;;
20080;SDS011;10200;49.232;9.222;2022-08-27T06:12:03;22.83;;;17.23;;
20080;SDS011;10200;49.232;9.222;2022-08-27T06:14:29;19.20;;;14.88;;
20080;SDS011;10200;49.232;9.222;2022-08-27T06:16:55;22.40;;;17.70;;
20080;SDS011;10200;49.232;9.222;2022-08-27T06:19:20;21.92;;;16.50;;
20080;SDS011;10200;49.232;9.222;2022-08-27T06:21:47;28.52;;;21.42;;
20080;SDS011;10200;49.232;9.222;2022-08-27T06:24:13;22.27;;;17.55;;
20080;SDS011;10200;49.232;9.222;2022-08-27T06:26:40;17.38;;;15.40;;
20080;SDS011;10200;49.232;9.222;2022-08-27T06:29:07;17.95;;;13.90;;
20080;SDS011;10200;49.232;9.222;2022-08-27T06:31:33;21.40;;;16.40;;
20080;SDS011;10200;49.232;9.222;2022-08-27T06:34:00;19.88;;;15.52;;
20080;SDS011;10200;49.232;9.222;2022-08-27T06:36:28;22.73;;;17.98;;
20080;SDS011;10200;49.232;9.222;2022-08-27T06:38:54;24.50;;;17.42;;
20080;SDS011;10200;49.232;9.222;2022-08-27T06:41:21;22.60;;;17.55;;
20080;SDS011;10200;49.232;9.222;2022-08-27T06:43:48;16.98;;;14.10;;
20080;SDS011;10200;49.232;9.222;2022-08-27T06:46:15;19.45;;;16.45;;
20080;SDS011;10200;49.232;9.222;2022-08-27T06:48:43;24.23;;;18.35;;
20080;SDS011;10200;49.232;9.222;2022-08-27T06:51:12;21.13;;;18.25;;
20080;SDS011;10200;49.232;9.222;2022-08-27T06:53:40;19.77;;;16.58;;
20080;SDS011;10200;49.232;9.222;2022-08-27T06:56:06;21.33;;;17.30;;
20080;SDS011;10200;49.232;9.222;2022-08-27T06:58:33;25.88;;;18.58;;
20080;SDS011;10200;49.232;9.222;2022-08-27T07:01:00;24.65;;;16.75;;
20080;SDS011;10200;49.232;9.222;2022-08-27T07:03:26;21.60;;;17.10;;
20080;SDS011;10200;49.232;9.222;2022-08-27T07:05:52;18.75;;;14.40;;
20080;SDS011;10200;49.232;9.222;2022-08-27T07:08:17;21.52;;;16.17;;
20080;SDS011;10200;49.232;9.222;2022-08-27T07:10:43;22.17;;;16.30;;
20080;SDS011;10200;49.232;9.222;2022-08-27T07:13:09;20.65;;;17.23;;
20080;SDS011;10200;49.232;9.222;2022-08-27T07:15:37;19.77;;;15.98;;
20080;SDS011;10200;49.232;9.222;2022-08-27T07:18:03;22.52;;;17.05;;
20080;SDS011;10200;49.232;9.222;2022-08-27T07:20:29;23.27;;;17.63;;
20080;SDS011;10200;49.232;9.222;2022-08-27T07:22:54;22.33;;;18.48;;
20080;SDS011;10200;49.232;9.222;2022-08-27T07:25:23;22.20;;;17.73;;
20080;SDS011;10200;49.232;9.222;2022-08-27T07:27:49;24.52;;;17.75;;
20080;SDS011;10200;49.232;9.222;2022-08-27T07:30:15;22.83;;;17.98;;
20080;SDS011;10200;49.232;9.222;2022-08-27T07:32:42;19.17;;;16.23;;
20080;SDS011;10200;49.232;9.222;2022-08-27T07:35:08;26.48;;;17.38;;
20080;SDS011;10200;49.232;9.222;2022-08-27T07:37:35;21.15;;;18.23;;
20080;SDS011;10200;49.232;9.222;2022-08-27T07:40:03;21.13;;;18.77;;
20080;SDS011;10200;49.232;9.222;2022-08-27T07:42:29;20.73;;;17.58;;
20080;SDS011;10200;49.232;9.222;2022-08-27T07:45:13;23.58;;;18.02;;
20080;SDS011;10200;49.232;9.222;2022-08-27T07:47:39;26.10;;;20.02;;
20080;SDS011;10200;49.232;9.222;2022-08-27T07:50:05;26.48;;;19.98;;
20080;SDS011;10200;49.232;9.222;2022-08-27T07:52:31;26.33;;;20.02;;
20080;SDS011;10200;49.232;9.222;2022-08-27T07:54:57;25.45;;;18.55;;
20080;SDS011;10200;49.232;9.222;2022-08-27T07:57:23;23.58;;;15.63;;
20080;SDS011;10200;49.232;9.222;2022-08-27T07:59:48;18.77;;;16.02;;
20080;SDS011;10200;49.232;9.222;2022-08-27T08:02:14;20.08;;;16.95;;
20080;SDS011;10200;49.232;9.222;2022-08-27T08:04:40;28.75;;;17.33;;
20080;SDS011;10200;49.232;9.222;2022-08-27T08:07:05;21.52;;;16.10;;
20080;SDS011;10200;49.232;9.222;2022-08-27T08:09:31;19.70;;;16.52;;
20080;SDS011;10200;49.232;9.222;2022-08-27T08:11:57;21.25;;;16.88;;
20080;SDS011;10200;49.232;9.222;2022-08-27T08:14:22;20.85;;;17.05;;
20080;SDS011;10200;49.232;9.222;2022-08-27T08:16:48;17.63;;;15.70;;
20080;SDS011;10200;49.232;9.222;2022-08-27T08:19:13;23.13;;;15.65;;
20080;SDS011;10200;49.232;9.222;2022-08-27T08:21:39;21.48;;;16.48;;
20080;SDS011;10200;49.232;9.222;2022-08-27T08:24:05;18.63;;;15.43;;
20080;SDS011;10200;49.232;9.222;2022-08-27T08:26:31;18.98;;;15.57;;
20080;SDS011;10200;49.232;9.222;2022-08-27T08:28:56;19.23;;;14.50;;
20080;SDS011;10200;49.232;9.222;2022-08-27T08:31:24;24.15;;;17.75;;
20080;SDS011;10200;49.232;9.222;2022-08-27T08:33:51;19.55;;;13.90;;
20080;SDS011;10200;49.232;9.222;2022-08-27T08:36:17;19.63;;;14.38;;
20080;SDS011;10200;49.232;9.222;2022-08-27T08:38:44;19.20;;;16.42;;
20080;SDS011;10200;49.232;9.222;2022-08-27T08:43:52;13.82;;;11.73;;
20080;SDS011;10200;49.232;9.222;2022-08-27T08:48:48;15.55;;;11.98;;
20080;SDS011;10200;49.232;9.222;2022-08-27T08:51:29;17.67;;;14.20;;
20080;SDS011;10200;49.232;9.222;2022-08-27T08:54:02;17.92;;;12.82;;
20080;SDS011;10200;49.232;9.222;2022-08-27T08:56:37;21.23;;;12.95;;
20080;SDS011;10200;49.232;9.222;2022-08-27T09:01:55;13.23;;;10.20;;
20080;SDS011;10200;49.232;9.222;2022-08-27T09:04:22;15.25;;;12.75;;
20080;SDS011;10200;49.232;9.222;2022-08-27T09:06:53;15.55;;;12.25;;
20080;SDS011;10200;49.232;9.222;2022-08-27T09:09:33;14.02;;;10.93;;
20080;SDS011;10200;49.232;9.222;2022-08-27T09:12:16;16.17;;;11.88;;
20080;SDS011;10200;49.232;9.222;2022-08-27T09:17:31;16.17;;;11.63;;
20080;SDS011;10200;49.232;9.222;2022-08-27T09:19:57;14.88;;;10.98;;
20080;SDS011;10200;49.232;9.222;2022-08-27T09:25:08;18.05;;;13.40;;
20080;SDS011;10200;49.232;9.222;2022-08-27T09:27:40;16.00;;;12.65;;
20080;SDS011;10200;49.232;9.222;2022-08-27T09:30:08;15.27;;;12.07;;
20080;SDS011;10200;49.232;9.222;2022-08-27T09:32:36;16.65;;;11.23;;
20080;SDS011;10200;49.232;9.222;2022-08-27T09:35:03;16.50;;;12.27;;
20080;SDS011;10200;49.232;9.222;2022-08-27T09:37:32;21.27;;;11.52;;
20080;SDS011;10200;49.232;9.222;2022-08-27T09:45:15;17.30;;;10.60;;
20080;SDS011;10200;49.232;9.222;2022-08-27T09:50:11;17.25;;;10.85;;
20080;SDS011;10200;49.232;9.222;2022-08-27T09:55:27;13.68;;;10.63;;
20080;SDS011;10200;49.232;9.222;2022-08-27T09:57:53;14.93;;;10.45;;
20080;SDS011;10200;49.232;9.222;2022-08-27T10:00:25;13.75;;;10.45;;
20080;SDS011;10200;49.232;9.222;2022-08-27T10:03:02;15.68;;;12.65;;
20080;SDS011;10200;49.232;9.222;2022-08-27T10:05:34;13.90;;;11.32;;
20080;SDS011;10200;49.232;9.222;2022-08-27T10:08:09;12.98;;;9.95;;
20080;SDS011;10200;49.232;9.222;2022-08-27T10:11:12;17.50;;;11.63;;
20080;SDS011;10200;49.232;9.222;2022-08-27T10:13:54;12.77;;;9.88;;
20080;SDS011;10200;49.232;9.222;2022-08-27T10:40:32;10.25;;;8.63;;
20080;SDS011;10200;49.232;9.222;2022-08-27T10:46:30;12.90;;;8.95;;
20080;SDS011;10200;49.232;9.222;2022-08-27T10:54:55;13.43;;;9.15;;
20080;SDS011;10200;49.232;9.222;2022-08-27T11:00:29;12.35;;;8.15;;
20080;SDS011;10200;49.232;9.222;2022-08-27T11:03:29;10.68;;;8.48;;
20080;SDS011;10200;49.232;9.222;2022-08-27T11:05:55;11.82;;;7.90;;
20080;SDS011;10200;49.232;9.222;2022-08-27T11:08:39;9.40;;;7.82;;
20080;SDS011;10200;49.232;9.222;2022-08-27T11:11:24;10.13;;;8.02;;
20080;SDS011;10200;49.232;9.222;2022-08-27T11:14:13;13.85;;;8.10;;
20080;SDS011;10200;49.232;9.222;2022-08-27T11:17:02;8.00;;;7.22;;
20080;SDS011;10200;49.232;9.222;2022-08-27T11:19:42;11.77;;;7.88;;
20080;SDS011;10200;49.232;9.222;2022-08-27T11:22:21;7.07;;;6.38;;
20080;SDS011;10200;49.232;9.222;2022-08-27T11:25:06;10.95;;;7.00;;
20080;SDS011;10200;49.232;9.222;2022-08-27T11:27:46;10.13;;;7.40;;
20080;SDS011;10200;49.232;9.222;2022-08-27T11:33:25;9.18;;;6.38;;
20080;SDS011;10200;49.232;9.222;2022-08-27T11:44:45;11.07;;;7.35;;
20080;SDS011;10200;49.232;9.222;2022-08-27T11:47:20;9.02;;;6.18;;
20080;SDS011;10200;49.232;9.222;2022-08-27T11:49:52;11.63;;;7.20;;
20080;SDS011;10200;49.232;9.222;2022-08-27T11:52:28;7.75;;;6.90;;
20080;SDS011;10200;49.232;9.222;2022-08-27T11:57:36;8.73;;;6.43;;
20080;SDS011;10200;49.232;9.222;2022-08-27T12:02:41;8.70;;;6.82;;
20080;SDS011;10200;49.232;9.222;2022-08-27T12:05:08;8.60;;;6.70;;
20080;SDS011;10200;49.232;9.222;2022-08-27T12:07:48;7.45;;;6.03;;
20080;SDS011;10200;49.232;9.222;2022-08-27T12:10:19;8.23;;;6.10;;
20080;SDS011;10200;49.232;9.222;2022-08-27T12:21:13;8.88;;;6.22;;
20080;SDS011;10200;49.232;9.222;2022-08-27T12:26:28;7.05;;;5.65;;
20080;SDS011;10200;49.232;9.222;2022-08-27T12:32:56;7.57;;;6.22;;
20080;SDS011;10200;49.232;9.222;2022-08-27T12:37:44;12.40;;;5.72;;
20080;SDS011;10200;49.232;9.222;2022-08-27T12:40:18;8.10;;;6.63;;
20080;SDS011;10200;49.232;9.222;2022-08-27T12:42:45;8.18;;;6.28;;
20080;SDS011;10200;49.232;9.222;2022-08-27T12:45:18;7.65;;;6.65;;
20080;SDS011;10200;49.232;9.222;2022-08-27T12:47:46;8.52;;;5.22;;
20080;SDS011;10200;49.232;9.222;2022-08-27T12:50:12;9.02;;;5.88;;
20080;SDS011;10200;49.232;9.222;2022-08-27T12:55:42;9.55;;;6.30;;
20080;SDS011;10200;49.232;9.222;2022-08-27T13:03:22;7.20;;;5.88;;
20080;SDS011;10200;49.232;9.222;2022-08-27T13:05:56;7.45;;;6.32;;
20080;SDS011;10200;49.232;9.222;2022-08-27T13:08:25;6.75;;;5.82;;
20080;SDS011;10200;49.232;9.222;2022-08-27T13:10:53;9.88;;;7.63;;
20080;SDS011;10200;49.232;9.222;2022-08-27T13:13:20;10.82;;;6.88;;
20080;SDS011;10200;49.232;9.222;2022-08-27T13:15:48;9.10;;;6.82;;
20080;SDS011;10200;49.232;9.222;2022-08-27T13:18:22;9.77;;;6.32;;
20080;SDS011;10200;49.232;9.222;2022-08-27T13:20:49;8.70;;;7.03;;
20080;SDS011;10200;49.232;9.222;2022-08-27T13:23:24;9.82;;;7.43;;
20080;SDS011;10200;49.232;9.222;2022-08-27T13:25:56;9.13;;;7.25;;
20080;SDS011;10200;49.232;9.222;2022-08-27T13:28:25;8.90;;;6.32;;
20080;SDS011;10200;49.232;9.222;2022-08-27T13:30:53;8.35;;;6.40;;
20080;SDS011;10200;49.232;9.222;2022-08-27T13:33:25;9.57;;;6.35;;
20080;SDS011;10200;49.232;9.222;2022-08-27T13:35:56;10.05;;;7.18;;
20080;SDS011;10200;49.232;9.222;2022-08-27T13:38:22;7.57;;;5.93;;
20080;SDS011;10200;49.232;9.222;2022-08-27T13:40:54;9.30;;;6.47;;
20080;SDS011;10200;49.232;9.222;2022-08-27T13:43:34;11.15;;;7.03;;
20080;SDS011;10200;49.232;9.222;2022-08-27T13:46:11;9.48;;;6.47;;
20080;SDS011;10200;49.232;9.222;2022-08-27T13:48:43;9.68;;;7.05;;
20080;SDS011;10200;49.232;9.222;2022-08-27T13:51:11;10.27;;;7.70;;
20080;SDS011;10200;49.232;9.222;2022-08-27T13:53:41;8.30;;;6.53;;
20080;SDS011;10200;49.232;9.222;2022-08-27T13:56:29;9.73;;;6.97;;
20080;SDS011;10200;49.232;9.222;2022-08-27T13:59:15;7.57;;;6.35;;
20080;SDS011;10200;49.232;9.222;2022-08-27T14:01:54;14.00;;;7.38;;
20080;SDS011;10200;49.232;9.222;2022-08-27T14:04:23;8.88;;;6.60;;
20080;SDS011;10200;49.232;9.222;2022-08-27T14:07:08;9.18;;;7.88;;
20080;SDS011;10200;49.232;9.222;2022-08-27T14:09:55;11.27;;;6.60;;
20080;SDS011;10200;49.232;9.222;2022-08-27T14:12:36;9.80;;;7.05;;
20080;SDS011;10200;49.232;9.222;2022-08-27T14:15:20;9.70;;;7.30;;
20080;SDS011;10200;49.232;9.222;2022-08-27T14:18:30;11.80;;;7.45;;
20080;SDS011;10200;49.232;9.222;2022-08-27T14:20:58;9.65;;;7.68;;
20080;SDS011;10200;49.232;9.222;2022-08-27T14:23:25;14.77;;;8.10;;
20080;SDS011;10200;49.232;9.222;2022-08-27T14:25:51;12.15;;;7.45;;
20080;SDS011;10200;49.232;9.222;2022-08-27T14:28:20;7.85;;;6.75;;
20080;SDS011;10200;49.232;9.222;2022-08-27T14:30:46;13.93;;;6.60;;
20080;SDS011;10200;49.232;9.222;2022-08-27T14:33:12;9.90;;;6.75;;
20080;SDS011;10200;49.232;9.222;2022-08-27T14:35:38;8.32;;;6.63;;
20080;SDS011;10200;49.232;9.222;2022-08-27T14:38:12;7.35;;;6.50;;
20080;SDS011;10200;49.232;9.222;2022-08-27T14:40:42;8.82;;;7.38;;
20080;SDS011;10200;49.232;9.222;2022-08-27T14:43:12;12.32;;;9.07;;
20080;SDS011;10200;49.232;9.222;2022-08-27T14:45:39;11.30;;;8.13;;
20080;SDS011;10200;49.232;9.222;2022-08-27T14:48:06;9.43;;;8.43;;
20080;SDS011;10200;49.232;9.222;2022-08-27T14:50:33;11.75;;;8.05;;
20080;SDS011;10200;49.232;9.222;2022-08-27T14:53:01;12.25;;;8.93;;
20080;SDS011;10200;49.232;9.222;2022-08-27T14:55:27;11.70;;;9.32;;
20080;SDS011;10200;49.232;9.222;2022-08-27T14:57:54;11.85;;;8.32;;
20080;SDS011;10200;49.232;9.222;2022-08-27T15:00:20;13.38;;;8.10;;
20080;SDS011;10200;49.232;9.222;2022-08-27T15:02:46;9.00;;;7.57;;
20080;SDS011;10200;49.232;9.222;2022-08-27T15:05:13;15.82;;;8.48;;
20080;SDS011;10200;49.232;9.222;2022-08-27T15:07:39;11.05;;;7.60;;
20080;SDS011;10200;49.232;9.222;2022-08-27T15:10:05;14.50;;;7.93;;
20080;SDS011;10200;49.232;9.222;2022-08-27T15:12:31;3.85;;;3.47;;
20080;SDS011;10200;49.232;9.222;2022-08-27T15:14:57;6.20;;;4.20;;
20080;SDS011;10200;49.232;9.222;2022-08-27T15:17:22;9.02;;;4.50;;
20080;SDS011;10200;49.232;9.222;2022-08-27T15:19:48;6.68;;;4.72;;
20080;SDS011;10200;49.232;9.222;2022-08-27T15:22:20;5.65;;;3.83;;
20080;SDS011;10200;49.232;9.222;2022-08-27T15:24:50;4.35;;;3.38;;
20080;SDS011;10200;49.232;9.222;2022-08-27T15:27:18;5.30;;;3.58;;
20080;SDS011;10200;49.232;9.222;2022-08-27T15:29:44;5.47;;;3.67;;
20080;SDS011;10200;49.232;9.222;2022-08-27T15:32:23;5.72;;;4.05;;
20080;SDS011;10200;49.232;9.222;2022-08-27T15:34:52;6.78;;;4.45;;
20080;SDS011;10200;49.232;9.222;2022-08-27T15:37:18;6.15;;;4.47;;
20080;SDS011;10200;49.232;9.222;2022-08-27T15:39:44;4.43;;;3.70;;
20080;SDS011;10200;49.232;9.222;2022-08-27T15:42:09;6.82;;;4.05;;
20080;SDS011;10200;49.232;9.222;2022-08-27T15:44:35;6.53;;;4.72;;
20080;SDS011;10200;49.232;9.222;2022-08-27T15:47:06;7.03;;;3.90;;
20080;SDS011;10200;49.232;9.222;2022-08-27T15:49:31;7.43;;;4.60;;
20080;SDS011;10200;49.232;9.222;2022-08-27T15:51:57;6.68;;;4.97;;
20080;SDS011;10200;49.232;9.222;2022-08-27T15:54:22;7.60;;;6.13;;
20080;SDS011;10200;49.232;9.222;2022-08-27T15:56:48;12.48;;;6.57;;
20080;SDS011;10200;49.232;9.222;2022-08-27T15:59:14;6.93;;;5.35;;
20080;SDS011;10200;49.232;9.222;2022-08-27T16:01:40;7.28;;;5.32;;
20080;SDS011;10200;49.232;9.222;2022-08-27T16:04:06;6.15;;;5.45;;
20080;SDS011;10200;49.232;9.222;2022-08-27T16:06:33;6.43;;;4.90;;
20080;SDS011;10200;49.232;9.222;2022-08-27T16:08:59;10.05;;;4.45;;
20080;SDS011;10200;49.232;9.222;2022-08-27T16:11:24;6.10;;;4.22;;
20080;SDS011;10200;49.232;9.222;2022-08-27T16:13:50;8.32;;;4.10;;
20080;SDS011;10200;49.232;9.222;2022-08-27T16:16:17;4.70;;;3.97;;
20080;SDS011;10200;49.232;9.222;2022-08-27T16:18:51;5.15;;;3.90;;
20080;SDS011;10200;49.232;9.222;2022-08-27T16:21:17;5.53;;;3.95;;
20080;SDS011;10200;49.232;9.222;2022-08-27T16:23:43;5.10;;;4.47;;
20080;SDS011;10200;49.232;9.222;2022-08-27T16:26:09;5.15;;;4.25;;